Time;durP1;ratioP1;P1;durP2;ratioP2;P2;SDS_P1;SDS_P2;PMS_P1;PMS_P2;Temp;Humidity;BMP_temperature;BMP_pressure;BME280_temperature;BME280_humidity;BME280_pressure;Samples;Min_cycle;Max_cycle;Signal;HPM_P1;HPM_P2
2021/10/01 00:00:16;;;;;;;1.30;0.10;;;24.40;40.30;;;;;;5059386;28;20040;-51
2021/10/01 00:02:43;;;;;;;0.55;0.10;;;24.40;40.30;;;;;;5055630;28;20424;-53
2021/10/01 00:05:11;;;;;;;1.02;0.30;;;24.40;40.20;;;;;;5051128;28;20051;-51
2021/10/01 00:07:38;;;;;;;0.10;0.10;;;24.50;40.20;;;;;;5064408;28;20044;-51
2021/10/01 00:10:06;;;;;;;0.43;0.17;;;24.50;40.10;;;;;;5067916;28;20040;-50
2021/10/01 00:12:33;;;;;;;2.83;0.10;;;24.50;40.10;;;;;;5055607;28;20653;-53
2021/10/01 00:15:01;;;;;;;0.52;0.20;;;24.50;40.00;;;;;;5055079;28;20524;-48
2021/10/01 00:17:29;;;;;;;2.97;0.20;;;24.50;40.00;;;;;;5055210;28;20051;-52
2021/10/01 00:19:56;;;;;;;0.30;0.03;;;24.50;39.90;;;;;;5053087;28;20505;-49
2021/10/01 00:22:24;;;;;;;1.35;0.10;;;24.60;39.90;;;;;;5055835;28;20044;-50
2021/10/01 00:24:51;;;;;;;0.30;0.10;;;24.60;39.90;;;;;;5055904;28;20040;-52
2021/10/01 00:27:18;;;;;;;1.60;0.40;;;24.60;39.90;;;;;;5053268;28;20200;-52
2021/10/01 00:29:46;;;;;;;0.57;0.10;;;24.60;39.80;;;;;;5058562;28;20068;-50
2021/10/01 00:32:13;;;;;;;1.38;0.10;;;24.60;39.80;;;;;;5068668;28;20063;-51
2021/10/01 00:34:41;;;;;;;1.25;0.10;;;24.60;39.80;;;;;;5063318;28;20607;-55
2021/10/01 00:37:08;;;;;;;1.55;0.10;;;24.60;39.70;;;;;;5036049;28;20052;-55
2021/10/01 00:39:35;;;;;;;1.65;0.82;;;24.60;39.70;;;;;;5054442;28;20029;-56
2021/10/01 00:42:02;;;;;;;0.55;0.20;;;24.60;39.70;;;;;;5053596;28;20048;-55
2021/10/01 00:44:29;;;;;;;1.75;0.10;;;24.60;39.70;;;;;;5054499;28;20036;-57
2021/10/01 00:46:56;;;;;;;1.10;0.10;;;24.60;39.60;;;;;;5053443;28;20037;-47
2021/10/01 00:49:24;;;;;;;0.10;0.00;;;24.60;39.60;;;;;;5049890;28;20037;-51
2021/10/01 00:51:53;;;;;;;3.55;0.10;;;24.60;39.60;;;;;;5065567;28;20045;-49
2021/10/01 00:54:21;;;;;;;1.75;0.10;;;24.60;39.60;;;;;;5053232;28;20041;-49
2021/10/01 00:56:48;;;;;;;0.10;0.00;;;24.60;39.50;;;;;;5068113;28;20049;-52
2021/10/01 00:59:16;;;;;;;2.20;0.15;;;24.60;39.50;;;;;;5062698;28;20093;-54
2021/10/01 01:01:43;;;;;;;0.30;0.10;;;24.60;39.50;;;;;;5064992;28;20033;-48
2021/10/01 01:04:11;;;;;;;1.10;0.10;;;24.60;40.10;;;;;;5064672;28;20036;-50
2021/10/01 01:06:44;;;;;;;2.15;0.38;;;24.60;39.50;;;;;;5051099;28;20154;-51
2021/10/01 01:09:25;;;;;;;0.75;0.10;;;24.60;39.50;;;;;;5060202;28;20508;-59
2021/10/01 01:12:06;;;;;;;0.10;0.10;;;24.70;39.50;;;;;;5059539;28;20043;-41
2021/10/01 01:14:42;;;;;;;1.75;0.10;;;24.60;39.50;;;;;;5058247;28;20037;-40
2021/10/01 01:17:15;;;;;;;11.30;0.30;;;24.60;39.50;;;;;;5051581;28;20091;-41
2021/10/01 01:20:02;;;;;;;7.43;0.68;;;24.60;39.50;;;;;;5066217;28;20037;-40
2021/10/01 01:22:36;;;;;;;7.45;0.05;;;24.60;39.40;;;;;;5049386;28;20037;-41
2021/10/01 01:25:28;;;;;;;4.57;0.20;;;24.60;39.30;;;;;;5063648;28;20036;-40
2021/10/01 01:28:07;;;;;;;4.38;0.70;;;24.60;39.30;;;;;;5053024;28;20587;-40
2021/10/01 01:30:39;;;;;;;6.45;0.20;;;24.60;39.30;;;;;;5067370;28;20439;-40
2021/10/01 01:33:12;;;;;;;6.22;0.10;;;24.60;39.40;;;;;;5058753;28;20460;-41
2021/10/01 01:35:40;;;;;;;3.70;0.10;;;24.50;39.30;;;;;;5059476;28;20037;-40
2021/10/01 01:38:11;;;;;;;0.98;0.10;;;24.60;39.40;;;;;;5053874;28;20381;-40
2021/10/01 01:40:41;;;;;;;2.15;0.10;;;24.50;39.30;;;;;;5050600;28;20039;-40
2021/10/01 01:43:10;;;;;;;1.65;0.10;;;24.50;39.40;;;;;;5066958;28;20115;-41
2021/10/01 01:45:38;;;;;;;7.72;0.32;;;24.50;40.00;;;;;;5055416;28;20837;-40
2021/10/01 01:48:08;;;;;;;1.33;0.10;;;24.50;39.30;;;;;;5061730;28;20505;-41
2021/10/01 01:50:37;;;;;;;1.95;0.10;;;24.40;39.30;;;;;;5057273;28;20500;-40
2021/10/01 01:53:07;;;;;;;6.70;0.10;;;24.40;39.40;;;;;;5054736;28;20040;-40
2021/10/01 01:55:35;;;;;;;2.67;0.10;;;24.40;39.40;;;;;;5060464;28;20078;-40
2021/10/01 01:58:02;;;;;;;2.90;0.17;;;24.40;39.50;;;;;;5062151;28;20045;-40
2021/10/01 02:00:49;;;;;;;9.25;0.22;;;24.40;40.00;;;;;;5065840;28;20044;-41
2021/10/01 02:03:20;;;;;;;4.57;0.10;;;24.40;39.80;;;;;;5056625;28;20047;-41
2021/10/01 02:06:00;;;;;;;0.63;0.10;;;24.40;39.60;;;;;;5049801;28;20045;-41
2021/10/01 02:08:29;;;;;;;1.15;0.10;;;24.40;39.60;;;;;;5065325;28;20080;-41
2021/10/01 02:10:57;;;;;;;5.85;0.25;;;24.40;39.70;;;;;;5063573;28;20111;-41
2021/10/01 02:13:25;;;;;;;1.25;0.10;;;24.40;39.70;;;;;;5067122;28;20047;-40
2021/10/01 02:16:09;;;;;;;3.30;0.10;;;24.30;39.60;;;;;;5063648;28;20921;-40
2021/10/01 02:18:40;;;;;;;0.20;0.10;;;24.30;39.70;;;;;;5062529;28;20040;-41
2021/10/01 02:21:09;;;;;;;0.10;0.00;;;24.40;39.80;;;;;;5057319;28;20041;-40
2021/10/01 02:23:37;;;;;;;1.75;0.10;;;24.30;39.80;;;;;;5056967;28;20500;-41
2021/10/01 02:28:58;;;;;;;0.95;0.10;;;24.30;39.90;;;;;;5051219;28;20056;-41
2021/10/01 02:31:30;;;;;;;3.22;0.17;;;24.30;40.00;;;;;;5063108;28;20048;-41
2021/10/01 02:34:03;;;;;;;0.17;0.10;;;24.30;40.10;;;;;;5063567;28;20082;-40
2021/10/01 02:36:31;;;;;;;0.13;0.08;;;24.30;40.10;;;;;;5055298;28;20124;-41
2021/10/01 02:38:58;;;;;;;2.05;0.28;;;24.30;40.20;;;;;;5056464;28;20043;-41
2021/10/01 02:41:25;;;;;;;1.05;0.20;;;24.30;40.20;;;;;;5063198;28;20084;-41
2021/10/01 02:43:52;;;;;;;0.90;0.30;;;24.20;40.20;;;;;;5049361;28;20040;-41
2021/10/01 02:46:19;;;;;;;0.63;0.10;;;24.30;40.30;;;;;;5065872;28;20052;-41
2021/10/01 02:48:49;;;;;;;1.33;0.30;;;24.30;40.40;;;;;;5053479;28;20059;-45
2021/10/01 02:51:21;;;;;;;4.47;0.00;;;24.30;40.40;;;;;;5054251;28;20041;-42
2021/10/01 02:53:55;;;;;;;0.20;0.10;;;24.20;40.60;;;;;;5056711;28;20032;-41
2021/10/01 02:56:28;;;;;;;0.35;0.10;;;24.30;40.70;;;;;;5060499;28;20127;-40
2021/10/01 02:58:58;;;;;;;0.88;0.05;;;24.20;40.80;;;;;;5050984;28;20099;-41
2021/10/01 03:01:28;;;;;;;0.10;0.10;;;24.20;40.80;;;;;;5063595;28;20047;-41
2021/10/01 03:04:02;;;;;;;0.10;0.10;;;24.20;40.80;;;;;;5062458;28;20115;-40
2021/10/01 03:06:35;;;;;;;0.52;0.10;;;24.20;40.90;;;;;;5053902;28;20044;-40
2021/10/01 03:09:03;;;;;;;0.20;0.00;;;24.20;40.90;;;;;;5061612;28;20048;-40
2021/10/01 03:11:32;;;;;;;0.10;0.00;;;24.20;40.90;;;;;;5058441;28;20063;-41
2021/10/01 03:14:01;;;;;;;1.45;0.10;;;24.20;40.90;;;;;;5060557;28;20203;-40
2021/10/01 03:16:31;;;;;;;0.47;0.10;;;24.20;40.90;;;;;;5064894;28;20086;-41
2021/10/01 03:18:59;;;;;;;0.38;0.17;;;24.20;40.90;;;;;;5066940;28;20123;-41
2021/10/01 03:21:27;;;;;;;0.45;0.10;;;24.20;40.90;;;;;;5058438;28;20132;-41
2021/10/01 03:23:57;;;;;;;0.50;0.50;;;24.20;40.90;;;;;;5065094;28;20049;-40
2021/10/01 03:26:28;;;;;;;0.10;0.10;;;24.20;40.90;;;;;;5064710;28;20086;-40
2021/10/01 03:28:55;;;;;;;0.10;0.10;;;24.20;40.90;;;;;;5064312;28;20044;-40
2021/10/01 03:31:25;;;;;;;1.20;0.88;;;24.20;40.90;;;;;;5063875;28;20055;-41
2021/10/01 03:33:52;;;;;;;0.22;0.00;;;24.20;40.90;;;;;;5053361;28;20044;-41
2021/10/01 03:36:19;;;;;;;1.48;0.10;;;24.20;40.80;;;;;;5058607;28;20512;-41
2021/10/01 03:38:53;;;;;;;0.47;0.20;;;24.10;40.70;;;;;;5060558;28;20124;-41
2021/10/01 03:41:22;;;;;;;3.05;0.17;;;24.10;40.70;;;;;;5064020;28;20429;-41
2021/10/01 03:43:49;;;;;;;0.80;0.00;;;24.10;40.70;;;;;;5065128;28;20523;-41
2021/10/01 03:46:17;;;;;;;0.17;0.00;;;24.10;40.70;;;;;;5054772;28;20086;-41
2021/10/01 03:48:44;;;;;;;0.10;0.10;;;24.10;41.30;;;;;;5054999;28;20056;-41
2021/10/01 03:51:11;;;;;;;0.90;0.20;;;24.10;40.70;;;;;;5063838;28;20045;-42
2021/10/01 03:53:38;;;;;;;1.65;0.10;;;24.10;40.70;;;;;;5063846;28;20049;-41
2021/10/01 03:56:09;;;;;;;1.33;0.65;;;24.10;40.70;;;;;;5062647;28;20800;-40
2021/10/01 03:58:39;;;;;;;0.10;0.10;;;24.10;40.70;;;;;;5060192;28;20049;-41
2021/10/01 04:01:06;;;;;;;0.30;0.10;;;24.10;40.70;;;;;;5049682;28;20059;-41
2021/10/01 04:03:34;;;;;;;0.13;0.00;;;24.10;40.70;;;;;;5053535;28;20148;-41
2021/10/01 04:06:01;;;;;;;0.20;0.00;;;24.10;40.70;;;;;;5062711;28;20037;-41
2021/10/01 04:08:28;;;;;;;2.55;0.20;;;24.10;40.80;;;;;;5062004;28;20412;-40
2021/10/01 04:10:55;;;;;;;0.47;0.40;;;24.10;40.80;;;;;;5066024;28;20043;-40
2021/10/01 04:13:22;;;;;;;0.20;0.00;;;24.00;40.80;;;;;;5068638;28;21328;-41
2021/10/01 04:15:53;;;;;;;0.60;0.10;;;24.00;41.40;;;;;;5055412;28;20116;-41
2021/10/01 04:18:24;;;;;;;2.28;0.10;;;24.00;40.90;;;;;;5062284;28;20041;-41
2021/10/01 04:20:51;;;;;;;0.10;0.10;;;24.00;41.00;;;;;;5052985;28;20041;-41
2021/10/01 04:23:19;;;;;;;0.40;0.38;;;24.00;41.00;;;;;;5053274;28;20504;-41
2021/10/01 04:25:49;;;;;;;0.47;0.10;;;23.90;41.10;;;;;;5053045;28;20064;-41
2021/10/01 04:28:18;;;;;;;0.10;0.08;;;23.90;41.10;;;;;;5050103;28;20094;-40
2021/10/01 04:30:48;;;;;;;1.40;0.10;;;23.90;41.20;;;;;;5065519;28;20179;-41
2021/10/01 04:33:20;;;;;;;2.58;0.20;;;23.90;41.20;;;;;;5058285;28;20044;-41
2021/10/01 04:35:48;;;;;;;0.30;0.10;;;23.90;41.30;;;;;;5054866;28;20064;-41
2021/10/01 04:38:16;;;;;;;0.20;0.10;;;23.90;41.30;;;;;;5052208;28;20045;-40
2021/10/01 04:40:45;;;;;;;0.73;0.10;;;23.90;41.30;;;;;;5052514;28;20047;-41
2021/10/01 04:43:12;;;;;;;0.60;0.10;;;23.80;41.30;;;;;;5050093;28;20033;-41
2021/10/01 04:45:59;;;;;;;4.95;0.00;;;23.80;41.40;;;;;;5066655;28;20106;-40
2021/10/01 04:48:27;;;;;;;0.13;0.00;;;23.80;41.50;;;;;;5056363;28;20473;-40
2021/10/01 04:50:55;;;;;;;0.88;0.10;;;23.80;41.50;;;;;;5052758;28;20567;-40
2021/10/01 04:53:23;;;;;;;0.20;0.10;;;23.80;41.60;;;;;;5058988;28;20512;-40
2021/10/01 04:55:51;;;;;;;0.35;0.10;;;23.80;42.20;;;;;;5064208;28;20053;-40
2021/10/01 04:58:18;;;;;;;7.22;0.00;;;23.70;41.60;;;;;;5056746;28;20135;-40
2021/10/01 05:01:04;;;;;;;0.20;0.00;;;23.70;41.60;;;;;;5065535;28;20060;-40
2021/10/01 05:03:51;;;;;;;0.30;0.25;;;23.70;41.60;;;;;;5054993;28;20037;-40
2021/10/01 05:06:47;;;;;;;0.30;0.10;;;23.70;41.70;;;;;;5055262;28;20122;-40
2021/10/01 05:09:33;;;;;;;1.65;0.10;;;23.70;42.30;;;;;;5053537;28;20057;-40
2021/10/01 05:12:20;;;;;;;1.38;0.00;;;23.60;41.70;;;;;;5052528;28;20041;-40
2021/10/01 05:15:14;;;;;;;0.25;0.00;;;23.70;41.80;;;;;;5016801;28;20497;-40
2021/10/01 05:17:59;;;;;;;1.58;0.05;;;23.60;41.70;;;;;;5014838;28;20093;-41
2021/10/01 05:20:46;;;;;;;2.75;0.30;;;23.60;41.70;;;;;;5016426;28;20450;-40
2021/10/01 05:23:20;;;;;;;1.00;0.10;;;23.60;41.80;;;;;;5007457;28;20050;-40
2021/10/01 05:25:47;;;;;;;2.30;0.10;;;23.60;41.80;;;;;;5009824;28;20061;-41
2021/10/01 05:28:14;;;;;;;0.20;0.10;;;23.60;41.80;;;;;;5007459;28;20048;-41
2021/10/01 05:30:41;;;;;;;2.42;0.13;;;23.60;41.70;;;;;;5024506;28;20135;-40
2021/10/01 05:33:11;;;;;;;1.00;0.20;;;23.60;41.80;;;;;;5001110;28;20063;-41
2021/10/01 05:35:40;;;;;;;2.58;0.10;;;23.60;41.90;;;;;;5020611;28;20534;-41
2021/10/01 05:38:09;;;;;;;1.73;0.10;;;23.60;41.90;;;;;;5010034;28;20045;-41
2021/10/01 05:40:36;;;;;;;1.55;0.10;;;23.60;41.90;;;;;;4994084;28;20129;-40
2021/10/01 05:43:03;;;;;;;0.65;0.10;;;23.50;41.90;;;;;;4994149;28;20057;-41
2021/10/01 05:45:31;;;;;;;0.47;0.00;;;23.50;41.90;;;;;;5005568;28;20053;-40
2021/10/01 05:48:17;;;;;;;0.88;0.10;;;23.60;41.90;;;;;;5020078;28;20602;-40
2021/10/01 05:51:07;;;;;;;0.10;0.10;;;23.50;41.90;;;;;;5018476;28;20049;-41
2021/10/01 05:54:16;;;;;;;1.17;0.10;;;23.50;41.90;;;;;;5024668;28;20053;-41
2021/10/01 05:57:02;;;;;;;0.50;0.00;;;23.50;41.90;;;;;;5024167;28;20053;-41
2021/10/01 05:59:39;;;;;;;1.15;0.08;;;23.50;41.90;;;;;;5023582;28;20127;-41
2021/10/01 06:02:09;;;;;;;0.10;0.10;;;23.50;41.90;;;;;;5024168;28;20083;-40
2021/10/01 06:04:36;;;;;;;1.58;0.10;;;23.50;41.90;;;;;;5024281;28;20045;-41
2021/10/01 06:07:04;;;;;;;0.03;0.00;;;23.50;41.90;;;;;;5012525;28;20208;-40
2021/10/01 06:09:33;;;;;;;0.77;0.10;;;23.50;41.90;;;;;;5026077;28;20046;-40
2021/10/01 06:12:00;;;;;;;4.13;0.10;;;23.50;41.90;;;;;;5024884;28;20053;-40
2021/10/01 06:14:27;;;;;;;1.38;0.10;;;23.50;41.90;;;;;;5024428;28;20041;-40
2021/10/01 06:16:55;;;;;;;0.70;0.13;;;23.50;41.90;;;;;;5023591;28;20151;-40
2021/10/01 06:19:23;;;;;;;0.10;0.00;;;23.50;41.90;;;;;;5004849;28;20175;-40
2021/10/01 06:21:51;;;;;;;1.75;0.10;;;23.50;41.90;;;;;;5024226;28;20053;-40
2021/10/01 06:24:19;;;;;;;0.28;0.10;;;23.50;41.90;;;;;;5017330;28;20065;-41
2021/10/01 06:26:48;;;;;;;0.10;0.10;;;23.50;41.90;;;;;;5018246;28;20065;-41
2021/10/01 06:29:15;;;;;;;0.45;0.10;;;23.40;41.80;;;;;;5058943;28;20053;-40
2021/10/01 06:31:42;;;;;;;0.95;0.03;;;23.50;41.90;;;;;;5063192;28;20072;-41
2021/10/01 06:34:10;;;;;;;1.70;0.25;;;23.50;41.90;;;;;;5051899;28;20106;-41
2021/10/01 06:36:37;;;;;;;5.65;0.20;;;23.50;42.00;;;;;;5050749;28;20037;-41
2021/10/01 06:39:06;;;;;;;0.95;0.10;;;23.50;42.00;;;;;;5050158;28;20041;-41
2021/10/01 06:41:34;;;;;;;1.70;0.10;;;23.50;42.00;;;;;;5050243;28;20037;-39
2021/10/01 06:44:05;;;;;;;8.77;0.13;;;23.50;42.00;;;;;;5051287;28;20033;-40
2021/10/01 06:46:38;;;;;;;0.65;0.65;;;23.50;42.00;;;;;;5049906;28;20037;-41
2021/10/01 06:49:23;;;;;;;3.10;0.10;;;23.50;42.00;;;;;;5059898;28;20037;-41
2021/10/01 08:20:36;;;;;;;2.83;0.10;;;23.40;43.10;;;;;;5058607;28;20033;-52
2021/10/01 08:23:05;;;;;;;4.95;0.10;;;23.40;43.10;;;;;;5063277;28;20044;-49
2021/10/01 08:25:33;;;;;;;4.10;0.20;;;23.40;43.10;;;;;;5060155;28;20044;-49
2021/10/01 08:28:01;;;;;;;2.05;0.73;;;23.40;43.10;;;;;;5061894;28;20048;-53
2021/10/01 08:30:29;;;;;;;2.47;0.10;;;23.40;43.00;;;;;;5064739;28;20135;-49
2021/10/01 08:32:57;;;;;;;0.85;0.25;;;23.40;43.00;;;;;;5063000;28;20040;-48
2021/10/01 08:35:24;;;;;;;2.08;0.10;;;23.40;43.00;;;;;;5062501;28;20041;-50
2021/10/01 08:37:52;;;;;;;0.20;0.10;;;23.40;43.00;;;;;;5065426;28;20475;-50
2021/10/01 08:40:22;;;;;;;1.92;0.10;;;23.40;43.00;;;;;;5049968;28;20115;-48
2021/10/01 08:42:51;;;;;;;1.27;0.35;;;23.30;43.00;;;;;;5065828;28;20049;-47
2021/10/01 08:45:21;;;;;;;2.85;1.05;;;23.30;43.00;;;;;;5065841;28;20500;-49
2021/10/01 08:47:49;;;;;;;2.75;0.22;;;23.40;43.00;;;;;;5064467;28;20044;-57
2021/10/01 08:50:18;;;;;;;1.80;0.22;;;23.30;42.90;;;;;;5063074;28;20043;-49
2021/10/01 08:52:46;;;;;;;5.30;0.10;;;23.30;42.90;;;;;;5066642;28;20049;-47
2021/10/01 08:55:14;;;;;;;5.43;0.45;;;23.30;42.90;;;;;;5068231;28;20036;-49
2021/10/01 08:57:44;;;;;;;1.55;0.43;;;23.30;42.90;;;;;;5065971;28;20566;-48
2021/10/01 09:00:14;;;;;;;0.10;0.10;;;23.30;42.90;;;;;;5066833;28;20045;-47
2021/10/01 09:02:41;;;;;;;0.40;0.40;;;23.30;43.00;;;;;;5059704;28;20041;-47
2021/10/01 09:05:11;;;;;;;1.73;0.10;;;23.20;42.90;;;;;;5064434;28;20036;-47
2021/10/01 09:07:38;;;;;;;0.35;0.17;;;23.30;43.00;;;;;;5067069;28;20508;-49
2021/10/01 09:10:09;;;;;;;0.93;0.10;;;23.30;43.00;;;;;;5068787;28;20048;-49
2021/10/01 09:12:36;;;;;;;0.40;0.10;;;23.30;43.00;;;;;;5067710;28;20040;-49
2021/10/01 09:15:08;;;;;;;7.20;0.10;;;23.20;43.00;;;;;;5061678;28;20040;-60
2021/10/01 09:17:36;;;;;;;1.75;0.15;;;23.30;43.20;;;;;;5060819;28;20394;-58
2021/10/01 09:20:05;;;;;;;0.10;0.10;;;23.20;43.60;;;;;;5062001;28;20037;-61
2021/10/01 09:22:34;;;;;;;1.50;0.10;;;23.30;44.10;;;;;;5049943;28;20056;-54
2021/10/01 09:25:10;;;;;;;0.80;0.20;;;23.30;44.30;;;;;;5061705;28;20524;-56
2021/10/01 09:27:39;;;;;;;0.50;0.10;;;23.30;44.50;;;;;;5055371;28;20037;-61
2021/10/01 09:30:10;;;;;;;2.38;0.10;;;23.40;44.60;;;;;;5064657;28;20041;-61
2021/10/01 09:32:38;;;;;;;0.98;0.10;;;23.40;44.50;;;;;;5062489;28;20043;-61
2021/10/01 09:35:14;;;;;;;0.90;0.10;;;23.50;44.50;;;;;;5066328;28;20072;-58
2021/10/01 09:37:42;;;;;;;4.18;0.15;;;23.50;44.40;;;;;;5065753;28;20119;-59
2021/10/01 09:40:11;;;;;;;1.42;0.55;;;23.60;44.30;;;;;;5061296;28;20491;-59
2021/10/01 09:42:45;;;;;;;0.28;0.10;;;23.70;44.20;;;;;;5062002;28;20053;-59
2021/10/01 09:45:16;;;;;;;2.75;0.10;;;23.80;44.00;;;;;;5063905;28;20048;-59
2021/10/01 09:47:45;;;;;;;0.68;0.10;;;23.80;43.90;;;;;;5061513;28;20044;-59
2021/10/01 09:50:15;;;;;;;0.77;0.10;;;23.90;43.80;;;;;;5061571;28;20626;-59
2021/10/01 09:52:45;;;;;;;1.10;0.10;;;24.00;43.60;;;;;;5064764;28;20394;-54
2021/10/01 09:55:13;;;;;;;1.00;0.10;;;24.10;43.50;;;;;;5065959;28;20416;-59
2021/10/01 09:57:58;;;;;;;0.20;0.10;;;24.10;43.30;;;;;;5062230;28;20120;-59
2021/10/01 10:00:34;;;;;;;0.93;0.30;;;24.20;43.20;;;;;;5060896;28;20054;-55
2021/10/01 10:03:01;;;;;;;1.55;0.10;;;24.30;43.10;;;;;;5054680;28;20123;-61
2021/10/01 10:05:56;;;;;;;0.63;0.10;;;24.40;43.00;;;;;;5066285;28;20128;-60
2021/10/01 10:08:25;;;;;;;2.45;0.28;;;24.50;42.80;;;;;;5061078;28;20090;-61
2021/10/01 10:10:54;;;;;;;0.85;0.10;;;24.50;42.60;;;;;;5062488;28;20150;-51
2021/10/01 10:13:37;;;;;;;0.50;0.10;;;24.60;42.50;;;;;;5060652;28;20067;-52
2021/10/01 10:16:09;;;;;;;0.80;0.10;;;24.70;42.40;;;;;;5080907;28;20606;-52
2021/10/01 10:18:36;;;;;;;0.95;0.10;;;24.70;42.20;;;;;;5062348;28;20127;-50
2021/10/01 10:21:05;;;;;;;1.52;0.10;;;24.80;42.10;;;;;;5067797;28;20463;-51
2021/10/01 10:23:33;;;;;;;2.38;0.20;;;24.80;42.00;;;;;;5050052;28;20045;-52
2021/10/01 10:26:00;;;;;;;0.73;0.10;;;24.90;41.90;;;;;;5060702;28;20544;-50
2021/10/01 10:28:28;;;;;;;1.00;0.52;;;24.90;41.80;;;;;;5059350;28;20048;-50
2021/10/01 10:30:56;;;;;;;5.43;0.32;;;24.90;41.80;;;;;;5064358;28;20115;-48
2021/10/01 10:33:50;;;;;;;4.05;0.73;;;24.90;41.70;;;;;;5058566;28;20045;-52
2021/10/01 10:36:35;;;;;;;1.17;0.10;;;24.90;41.70;;;;;;5030377;28;20394;-48
2021/10/01 10:39:43;;;;;;;0.20;0.10;;;24.90;41.70;;;;;;5065941;28;20064;-48
2021/10/01 10:42:16;;;;;;;1.95;0.10;;;24.90;41.80;;;;;;5040736;28;20059;-51
2021/10/01 10:44:46;;;;;;;0.30;0.10;;;24.90;41.80;;;;;;5037290;28;20045;-50
2021/10/01 10:47:42;;;;;;;2.83;0.15;;;24.90;41.80;;;;;;5038239;28;20087;-50
2021/10/01 10:50:51;;;;;;;1.15;0.10;;;25.00;41.70;;;;;;5038832;28;20059;-50
2021/10/01 10:53:21;;;;;;;1.77;0.20;;;24.90;41.70;;;;;;5038409;28;20431;-48
2021/10/01 10:55:54;;;;;;;0.60;0.20;;;24.90;41.80;;;;;;5042073;28;20053;-51
2021/10/01 10:58:49;;;;;;;0.57;0.30;;;24.90;41.90;;;;;;5041071;28;20060;-52
2021/10/01 11:01:34;;;;;;;2.92;0.10;;;24.90;41.90;;;;;;5040431;28;20148;-50
2021/10/01 11:04:27;;;;;;;3.05;0.30;;;24.90;41.90;;;;;;5039343;28;20115;-54
2021/10/01 11:06:55;;;;;;;2.58;0.20;;;24.90;41.90;;;;;;5042765;28;20053;-51
2021/10/01 11:09:30;;;;;;;4.38;0.10;;;24.90;42.10;;;;;;5033199;28;20065;-48
2021/10/01 11:11:59;;;;;;;4.80;0.50;;;24.90;42.20;;;;;;5037627;28;20053;-49
2021/10/01 11:14:29;;;;;;;2.20;0.20;;;24.90;42.20;;;;;;5041153;28;20050;-50
2021/10/01 11:17:20;;;;;;;0.85;0.10;;;24.90;42.20;;;;;;5034627;28;20050;-47
2021/10/01 11:19:53;;;;;;;0.68;0.10;;;25.00;42.20;;;;;;5065730;28;20144;-53
2021/10/01 11:22:36;;;;;;;0.68;0.30;;;25.00;42.20;;;;;;5074009;28;20048;-52
2021/10/01 11:25:11;;;;;;;0.63;0.10;;;25.00;42.10;;;;;;5064099;28;20037;-47
2021/10/01 11:27:55;;;;;;;1.02;0.10;;;25.00;42.10;;;;;;5055823;28;20044;-49
2021/10/01 11:30:24;;;;;;;1.10;0.30;;;25.10;42.00;;;;;;5060874;28;20063;-49
2021/10/01 11:32:51;;;;;;;0.40;0.10;;;25.10;42.00;;;;;;5060509;28;20048;-50
2021/10/01 11:35:20;;;;;;;3.17;0.32;;;25.10;42.00;;;;;;5063916;28;20047;-52
2021/10/01 11:37:50;;;;;;;0.77;0.73;;;25.20;42.10;;;;;;5052847;28;20048;-53
2021/10/01 11:40:24;;;;;;;1.08;0.10;;;25.20;42.00;;;;;;5062886;28;20032;-50
2021/10/01 11:42:53;;;;;;;3.20;0.10;;;25.20;41.90;;;;;;5062260;28;20045;-56
2021/10/01 11:45:23;;;;;;;0.80;0.10;;;25.20;42.00;;;;;;5066361;28;20040;-52
2021/10/01 11:47:54;;;;;;;2.83;0.15;;;25.20;42.00;;;;;;5054774;28;20041;-53
2021/10/01 11:50:34;;;;;;;1.75;0.10;;;25.30;42.10;;;;;;5062085;28;20066;-54
2021/10/01 11:53:02;;;;;;;2.13;0.10;;;25.30;42.00;;;;;;5051039;28;20059;-51
2021/10/01 11:55:32;;;;;;;1.45;0.13;;;25.30;42.00;;;;;;5061233;28;20036;-55
2021/10/01 11:57:59;;;;;;;2.45;0.10;;;25.40;42.10;;;;;;5063027;28;20052;-55
2021/10/01 12:00:26;;;;;;;1.45;0.10;;;25.40;42.10;;;;;;5064648;28;20412;-55
2021/10/01 12:02:54;;;;;;;0.10;0.10;;;25.50;42.10;;;;;;5056136;28;20045;-55
2021/10/01 12:05:32;;;;;;;0.47;0.35;;;25.60;42.10;;;;;;5052528;28;20041;-53
2021/10/01 12:08:01;;;;;;;2.20;0.40;;;25.70;42.00;;;;;;5067141;28;20062;-53
2021/10/01 12:10:30;;;;;;;2.38;0.10;;;25.70;41.80;;;;;;5055860;28;20037;-55
2021/10/01 12:13:13;;;;;;;1.92;0.10;;;25.80;41.80;;;;;;5071208;28;20059;-53
2021/10/01 12:15:50;;;;;;;2.72;0.10;;;25.90;41.70;;;;;;5061067;28;20041;-52
2021/10/01 12:18:35;;;;;;;1.15;0.17;;;25.90;41.60;;;;;;5059044;28;20032;-54
2021/10/01 12:21:07;;;;;;;2.08;0.10;;;26.00;41.50;;;;;;5076171;28;20142;-54
2021/10/01 12:23:37;;;;;;;0.50;0.32;;;26.00;41.40;;;;;;5071557;28;20040;-54
2021/10/01 12:26:24;;;;;;;3.40;0.82;;;26.00;41.40;;;;;;5065176;28;20037;-56
2021/10/01 12:28:56;;;;;;;0.25;0.08;;;26.10;41.30;;;;;;5061941;28;20048;-56
2021/10/01 12:31:28;;;;;;;1.05;0.10;;;26.10;41.20;;;;;;5067830;28;20079;-55
2021/10/01 12:33:56;;;;;;;0.73;0.10;;;26.20;41.30;;;;;;5051676;28;20060;-52
2021/10/01 12:36:26;;;;;;;0.10;0.10;;;26.20;41.20;;;;;;5058272;28;20041;-55
2021/10/01 12:38:55;;;;;;;1.45;0.20;;;26.20;41.20;;;;;;5054999;28;20044;-54
2021/10/01 12:41:24;;;;;;;1.23;0.10;;;26.20;41.10;;;;;;5056055;28;20452;-56
2021/10/01 12:43:53;;;;;;;3.50;0.20;;;26.30;41.20;;;;;;5054471;28;20115;-53
2021/10/01 12:46:41;;;;;;;0.30;0.10;;;26.30;41.20;;;;;;5067574;28;20051;-54
2021/10/01 12:49:13;;;;;;;1.75;0.43;;;26.30;41.10;;;;;;5050357;28;20461;-54
2021/10/01 12:51:41;;;;;;;3.15;0.52;;;26.30;41.10;;;;;;5055234;28;20041;-55
2021/10/01 12:54:33;;;;;;;1.40;0.13;;;26.30;41.10;;;;;;5056185;28;20049;-51
2021/10/01 12:57:15;;;;;;;0.20;0.10;;;26.30;41.00;;;;;;5052498;28;20073;-54
2021/10/01 12:59:45;;;;;;;1.00;0.63;;;26.40;41.00;;;;;;5062845;28;20123;-55
2021/10/01 13:02:15;;;;;;;1.30;0.40;;;26.30;41.00;;;;;;5063864;28;20072;-51
2021/10/01 13:05:00;;;;;;;2.08;0.30;;;26.30;41.10;;;;;;5052428;28;20584;-54
2021/10/01 13:07:34;;;;;;;2.83;0.20;;;26.30;41.10;;;;;;5067957;28;20573;-59
2021/10/01 13:10:17;;;;;;;5.30;0.28;;;26.20;41.20;;;;;;5065147;28;20040;-54
2021/10/01 13:12:48;;;;;;;0.80;0.10;;;26.20;41.40;;;;;;5054678;28;20052;-51
2021/10/01 13:15:24;;;;;;;2.60;0.20;;;26.10;41.50;;;;;;5060616;28;20051;-55
2021/10/01 13:18:28;;;;;;;0.82;0.10;;;26.00;41.60;;;;;;5057366;28;20063;-52
2021/10/01 13:21:07;;;;;;;2.95;0.10;;;26.00;41.70;;;;;;5046362;28;20049;-55
2021/10/01 13:23:37;;;;;;;1.38;0.10;;;25.90;41.80;;;;;;5051634;28;20148;-53
2021/10/01 13:26:11;;;;;;;4.45;0.10;;;25.90;41.90;;;;;;5063042;28;20488;-54
2021/10/01 13:28:39;;;;;;;0.60;0.10;;;25.80;42.00;;;;;;5052943;28;20093;-54
2021/10/01 13:31:06;;;;;;;1.98;0.10;;;25.80;42.20;;;;;;5064224;28;20047;-55
2021/10/01 13:33:33;;;;;;;0.98;0.40;;;25.70;42.20;;;;;;5052756;28;20534;-56
2021/10/01 13:36:00;;;;;;;4.15;0.20;;;25.70;42.40;;;;;;5053728;28;20573;-57
2021/10/01 13:38:30;;;;;;;1.77;0.10;;;25.70;42.80;;;;;;5056460;28;20515;-56
2021/10/01 13:40:59;;;;;;;1.85;0.20;;;25.70;43.20;;;;;;5063632;28;20036;-57
2021/10/01 13:43:27;;;;;;;1.75;0.20;;;25.70;43.90;;;;;;5050374;28;20128;-56
2021/10/01 13:45:55;;;;;;;1.33;0.10;;;25.60;44.70;;;;;;5065011;28;20539;-57
2021/10/01 13:48:22;;;;;;;2.58;0.10;;;25.60;45.00;;;;;;5053889;28;20589;-57
2021/10/01 13:50:49;;;;;;;0.63;0.08;;;25.60;45.20;;;;;;5056214;28;20045;-53
2021/10/01 13:53:16;;;;;;;1.55;0.85;;;25.60;45.30;;;;;;5063637;28;20044;-53
2021/10/01 13:55:44;;;;;;;0.30;0.10;;;25.60;45.80;;;;;;5057430;28;20727;-56
2021/10/01 13:58:12;;;;;;;2.22;0.70;;;25.60;46.30;;;;;;5047495;28;20506;-47
2021/10/01 14:00:40;;;;;;;2.00;0.20;;;25.60;46.80;;;;;;5060372;28;20043;-59
2021/10/01 14:03:07;;;;;;;1.33;0.10;;;25.60;47.00;;;;;;5062362;28;20071;-49
2021/10/01 14:05:34;;;;;;;0.10;0.05;;;25.60;47.20;;;;;;5065088;28;20032;-59
2021/10/01 14:08:03;;;;;;;8.65;0.20;;;25.60;47.20;;;;;;5063992;28;20076;-59
2021/10/01 14:10:32;;;;;;;4.10;0.22;;;25.60;47.30;;;;;;5071801;28;20055;-60
2021/10/01 14:13:00;;;;;;;0.55;0.00;;;25.70;47.50;;;;;;5068113;28;20048;-61
2021/10/01 14:15:30;;;;;;;1.40;0.10;;;25.70;47.50;;;;;;5064676;28;20055;-64
2021/10/01 14:17:57;;;;;;;0.20;0.10;;;25.70;47.50;;;;;;5059655;28;20052;-64
2021/10/01 14:20:26;;;;;;;0.40;0.40;;;25.70;47.50;;;;;;5070942;28;20045;-64
2021/10/01 14:22:54;;;;;;;1.48;0.10;;;25.70;47.50;;;;;;5051229;28;20037;-61
2021/10/01 14:25:23;;;;;;;1.60;0.10;;;25.70;47.50;;;;;;5049888;28;20051;-66
2021/10/01 14:27:56;;;;;;;0.30;0.10;;;25.70;47.60;;;;;;5054156;28;20037;-64
2021/10/01 14:30:25;;;;;;;0.57;0.57;;;25.70;47.70;;;;;;5059118;28;20044;-64
2021/10/01 14:32:54;;;;;;;0.52;0.10;;;25.70;47.70;;;;;;5061136;28;20592;-63
2021/10/01 14:35:22;;;;;;;1.95;0.65;;;25.70;47.70;;;;;;5058869;28;20049;-69
2021/10/01 14:37:49;;;;;;;0.10;0.10;;;25.70;47.70;;;;;;5063174;28;20045;-67
2021/10/01 14:40:17;;;;;;;0.95;0.10;;;25.70;47.70;;;;;;5064679;28;20055;-67
2021/10/01 14:42:45;;;;;;;0.20;0.03;;;25.70;47.60;;;;;;5064997;28;20415;-68